Golden Valley, Arizona
Current Conditions -  °F | °C
As of 11:51 PM on Tuesday 25 Nov 2014 (Local Time) from KIGM Reporting Station
Clear Clear  
Wind Chill: 33°   Ceiling: Unl
Heat Index: 37°   Visibility: 10mi
Dew Point:   Wind: 5mph
Humidity: 30%   Direction: 110°ESE
Pressure: 30.39"   Gusts: NA
Location:  35.22°N, 114.22°W
Report Text: KIGM 260651Z AUTO 11004KT 10SM CLR 03/M13 A3039 RMK AO2 SLP260 T00281133 401781050
Loading
Personal Weather Stations






























Interactive Weather Map New forecast layout! Learn more

10-Day Weather Forecast

Advertisements
Track Severe Weather on mobile